首页
METAR-TAF:

METAR-TAF

机场 :

Audubon County Airport

Audubon, 艾奥瓦州, 美国

纬度: 41-42-04N, 经度: 094-55-13W, 海拔: 392米

当前天气观测

该预报发布于41分钟前的16:15 UTC
风速11节,风向,有时为20节阵风
温度 31°C
湿度 71%
气压 1009 hPa
能見度: 16.1公里
散云层高于200英尺
多云层高于1500英尺
阴天层高于8500英尺

METAR: KADU 241615Z AUTO 17011G20KT 10SM SCT002 BKN015 OVC085 31/25 A2980 RMK AO2

时间: 11:56 (16:56 UTC)


TAF: 丢失

超过4000个机场的气象观测和天气预报(METAR&TAF报告)。

可查询的气象台以黄色和红色小点在地图上表示。

将鼠标移到小点上方,可查看气象台名称。

然后点击查看天气观测和预报。

如需切换地图:点击带黑十字的绿色按钮放大地图;点击带横线的绿色按钮缩小地图;或者点击绿色箭头查看邻近地区的地图。


METAR-TAF: